KMTH

Details ICAO KMTH (MTH)
Name The Florida Keys Marathon
Region United States
Timezone America/New_York (UTC-4.0)
Plans Departing 58
Arriving 86
Stats Elevation 5 ft / 2 m (AMSL)
Location 24.726183° -81.051368°
Runways 1
Magnetic Variation 6.056° W
Sunrise 2018-05-22 10:38:52 UTC / 2018-05-22 06:38:52 Local
Sunset 2018-05-23 00:05:46 UTC / 2018-05-22 20:05:46 Local
Advertisement - Login to hide

Runways

ID Width Length Bearing (true) Bearing (mag) Surface Threshold Offset Overrun Length
07 98 ft / 30 m 5,006 ft / 1,526 m 67.17° 73.23° Asphalt 0 ft / 0 m 410 ft / 125 m
25 98 ft / 30 m 5,006 ft / 1,526 m 247.18° 253.24° Asphalt 0 ft / 0 m 410 ft / 125 m

Map

Weather


0- 5 10 15 20 25 30 35+ Temperature / ° C

Clouds and Precipitation
Forecast for 2018-05-22 12:00 UTC. Updated 2 hours ago

Ground ~20,000 ft ~40,000 ft Winds

METAR

KMTH 220953Z AUTO 10007KT 10SM CLR 24/17 A2996 RMK AO2 RAE30 SLP145 P0000 T02440172

TAF

TAF AMD KMTH 220608Z 2206/2306 13011G20KT P6SM -RA FEW020 BKN040 OVC090 TEMPO 2206/2209 FEW015 BKN025 FM221000 13011G19KT P6SM VCSH SCT020 SCT090 BKN120 TEMPO 2210/2214 2SM SHRA BKN020 BKN035 OVC100

Frequencies

Recorded 135.52 MHz ASOS
Unicom 122.80 MHz CTAF/UNICOM
Warning: Do not use this data for real-world aviation or navigation. No guarantee of current accuracy is given.